Briefing drone pour Villeneuve-les-avignon

Rechercher une autre localisation

Conditions de vol :


Nous sommes le : Mercredi 14 avril 2021
Il est 22:44 UTC (00:44 LT)

Lever de soleil : 04:32 UTC (06:32 LT)
Coucher de soleil : 18:50 UTC (20:50 LT)

Météo

L'essentiel des conditions de vol

VIGILANCE MÉTÉO FRANCE - Gard (30)
Pas de vigilances particulieres
CARTE TEMSI
CARTES DES FRONTS
METAR de LFMV
LFMV 132230Z AUTO 35018KT CAVOK 09/M01 Q1021

Date d'émission: 13/04/2021
Heure d'émission: 22:30 UTC
Vent: 350° pour 18 KT (33 km/h)
Visibilité horizontale: > 10 km
Plafond : Plafond et visibilité OK (CAVOK)
Température: 9 °C
Point de rosée: -1 °C
Humidité: 50%
Pression (QNH): 1021 hPa
TAF de LFMV
AMD LFMV 132001Z 1320/1415 CNL

Conditions prévues :

Heure d'émission : Bulletin éffectué le 13 à 20:00 UTC
Prévision : Valide du 13 a 20:00 UTC au 14 a 15:00 UTC
Nuages : à 0ft (0 m)
WEBCAM POUR VILLENEUVE-LES-AVIGNON

Réglementation

Voler en sécurité

CARTES AERONAUTIQUE 1/500.000
CARTES VAC (LFMV)
SUP AIP




Chargement des AIP...
NOTAM (VILLENEUVE-LES-AVIGNON + Terrain à proximité / FIR )




Chargement des NOTAMS...
CONTACT PREFECTURE 30


Avertissement : Les données mises à disposition sont indicatives. Oxygène Drone ne pourra être tenu responsable de dégâts causés aux biens et aux personnes.